Time;durP1;ratioP1;P1;durP2;ratioP2;P2;SDS_P1;SDS_P2;PMS_P1;PMS_P2;Temp;Humidity;BMP_temperature;BMP_pressure;BME280_temperature;BME280_humidity;BME280_pressure;Samples;Min_cycle;Max_cycle;Signal;HPM_P1;HPM_P2
2023/01/08 00:00:50;;;;;;;23.05;3.75;;;;;;;13.86;50.69;98307.75;5132491;27;20071;-45
2023/01/08 00:03:16;;;;;;;13.38;3.22;;;;;;;13.84;50.62;98298.47;5132479;27;20466;-45
2023/01/08 00:05:42;;;;;;;12.77;2.78;;;;;;;13.86;51.02;98289.28;5131348;28;20118;-45
2023/01/08 00:08:09;;;;;;;14.98;2.85;;;;;;;13.94;50.24;98298.69;5132466;27;20027;-45
2023/01/08 00:10:36;;;;;;;8.88;2.28;;;;;;;13.90;50.77;98295.72;5132463;27;20062;-45
2023/01/08 00:13:02;;;;;;;14.32;2.97;;;;;;;13.98;51.11;98287.47;5132386;27;20040;-45
2023/01/08 00:15:29;;;;;;;10.25;2.47;;;;;;;14.18;50.09;98294.19;5131013;28;20019;-45
2023/01/08 00:17:55;;;;;;;4.10;1.60;;;;;;;14.19;49.13;98299.22;5132387;27;20076;-45
2023/01/08 00:20:21;;;;;;;6.85;1.80;;;;;;;14.05;49.23;98299.72;5130924;28;20084;-46
2023/01/08 00:22:50;;;;;;;13.15;2.20;;;;;;;13.93;49.80;98297.09;5132569;27;20027;-45
2023/01/08 00:25:17;;;;;;;7.03;1.70;;;;;;;13.89;49.35;98286.22;5132276;27;20438;-45
2023/01/08 00:27:43;;;;;;;10.57;2.28;;;;;;;13.76;49.88;98282.00;5132192;27;20027;-45
2023/01/08 00:30:10;;;;;;;5.90;2.00;;;;;;;13.70;50.02;98284.72;5132296;27;20034;-45
2023/01/08 00:32:35;;;;;;;26.52;4.03;;;;;;;13.59;50.80;98267.88;5130928;28;20027;-45
2023/01/08 00:35:01;;;;;;;4.88;1.77;;;;;;;13.53;50.61;98269.59;5132169;27;20442;-45
2023/01/08 00:37:27;;;;;;;10.25;2.80;;;;;;;13.42;51.04;98264.31;5131142;28;20584;-45
2023/01/08 00:39:53;;;;;;;18.00;3.00;;;;;;;13.43;50.99;98261.47;5132489;27;20027;-45
2023/01/08 00:42:19;;;;;;;19.65;3.58;;;;;;;13.48;51.52;98256.31;5116268;27;20019;-45
2023/01/08 00:44:44;;;;;;;21.65;3.78;;;;;;;13.61;51.51;98246.56;5134596;27;20023;-45
2023/01/08 00:47:10;;;;;;;29.77;4.38;;;;;;;13.75;51.77;98237.38;5134446;27;20035;-45
2023/01/08 00:49:36;;;;;;;14.05;2.25;;;;;;;13.94;50.35;98238.03;5134425;27;20030;-45
2023/01/08 00:52:02;;;;;;;6.82;1.67;;;;;;;14.05;50.15;98221.38;5135798;27;20389;-45
2023/01/08 00:54:28;;;;;;;7.53;1.88;;;;;;;14.23;49.49;98230.94;5135623;27;20031;-45
2023/01/08 00:56:56;;;;;;;10.98;2.10;;;;;;;14.27;48.87;98223.38;5134323;27;20115;-45
2023/01/08 00:59:22;;;;;;;4.70;1.98;;;;;;;14.19;49.25;98224.53;5135609;27;20111;-45
2023/01/08 01:01:48;;;;;;;3.60;1.60;;;;;;;14.15;49.00;98218.94;5135508;27;20064;-45
2023/01/08 01:04:13;;;;;;;5.25;1.92;;;;;;;14.10;48.82;98223.28;5134253;27;20484;-45
2023/01/08 01:06:41;;;;;;;4.00;1.50;;;;;;;13.93;48.44;98223.25;5135399;27;20544;-45
2023/01/08 01:09:07;;;;;;;8.13;2.38;;;;;;;13.74;49.46;98222.56;5135516;27;20095;-45
2023/01/08 01:11:33;;;;;;;11.38;2.40;;;;;;;13.80;49.43;98216.38;5135562;27;20031;-45
2023/01/08 01:13:59;;;;;;;7.97;1.88;;;;;;;13.79;49.33;98217.41;5135425;27;20034;-45
2023/01/08 01:16:25;;;;;;;8.93;1.90;;;;;;;13.75;49.58;98217.06;5135294;27;20059;-46
2023/01/08 01:18:52;;;;;;;9.57;2.85;;;;;;;13.77;49.88;98207.09;5133966;27;20121;-45
2023/01/08 01:21:21;;;;;;;9.90;2.40;;;;;;;13.86;49.44;98217.28;5134963;27;20046;-45
2023/01/08 01:23:46;;;;;;;12.25;3.30;;;;;;;13.83;49.64;98221.19;5133801;27;20030;-45
2023/01/08 01:26:15;;;;;;;5.35;1.98;;;;;;;13.86;49.53;98222.56;5135380;27;20027;-45
2023/01/08 01:28:41;;;;;;;6.10;1.77;;;;;;;13.86;49.65;98207.53;5135017;27;20020;-45
2023/01/08 01:31:11;;;;;;;5.32;1.80;;;;;;;13.92;49.77;98225.09;5134974;27;20415;-45
2023/01/08 01:33:36;;;;;;;8.70;2.38;;;;;;;13.93;49.83;98231.94;5133995;27;20019;-45
2023/01/08 01:36:02;;;;;;;5.70;1.98;;;;;;;13.89;49.76;98214.97;5134935;27;20027;-45
2023/01/08 01:38:29;;;;;;;10.95;2.42;;;;;;;13.97;50.11;98208.56;5134859;27;20020;-45
2023/01/08 01:40:55;;;;;;;6.00;2.08;;;;;;;14.03;50.09;98191.78;5133429;27;20023;-45
2023/01/08 01:43:34;;;;;;;16.48;3.08;;;;;;;14.08;50.01;98199.78;5133671;27;20027;-45
2023/01/08 01:46:00;;;;;;;9.85;2.72;;;;;;;14.14;49.90;98196.19;5134714;27;20031;-45
2023/01/08 01:48:25;;;;;;;11.25;2.53;;;;;;;14.17;49.81;98200.22;5133643;27;20050;-45
2023/01/08 01:50:53;;;;;;;6.68;2.63;;;;;;;14.17;50.19;98197.59;5134631;27;20091;-45
2023/01/08 01:53:26;;;;;;;7.28;2.45;;;;;;;14.15;50.50;98179.34;5134219;27;20452;-45
2023/01/08 01:55:52;;;;;;;8.73;1.73;;;;;;;14.03;51.78;98181.22;5134504;27;20088;-45
2023/01/08 01:58:22;;;;;;;9.43;2.70;;;;;;;13.83;52.79;98180.84;5134455;27;20019;-45
2023/01/08 02:00:49;;;;;;;3.67;1.50;;;;;;;13.62;53.29;98164.59;5133082;27;20027;-45
2023/01/08 02:03:15;;;;;;;15.25;4.03;;;;;;;13.50;54.08;98180.44;5133276;27;20027;-45
2023/01/08 02:06:22;;;;;;;21.15;3.15;;;;;;;13.50;54.69;98171.72;5134301;27;20398;-45
2023/01/08 02:09:04;;;;;;;6.53;1.60;;;;;;;13.56;53.35;98205.06;5156440;27;20035;-45
2023/01/08 02:11:40;;;;;;;6.10;1.75;;;;;;;13.48;53.46;98187.78;5134183;27;20030;-45
2023/01/08 02:14:12;;;;;;;9.82;1.92;;;;;;;13.50;53.49;98200.72;5134139;27;20031;-45
2023/01/08 02:17:08;;;;;;;14.93;3.65;;;;;;;13.58;54.12;98193.28;5134091;27;20173;-45
2023/01/08 02:19:43;;;;;;;16.80;2.92;;;;;;;13.68;53.94;98181.31;5134092;27;20026;-45
2023/01/08 02:22:24;;;;;;;9.52;1.95;;;;;;;13.72;53.08;98171.91;5132299;27;20046;-45
2023/01/08 02:25:16;;;;;;;7.15;1.70;;;;;;;13.79;52.41;98170.75;5132924;27;20033;-45
2023/01/08 02:27:46;;;;;;;7.85;1.70;;;;;;;13.72;52.23;98156.06;5133962;27;20031;-45
2023/01/08 02:30:12;;;;;;;8.85;1.88;;;;;;;13.75;52.45;98153.00;5133830;27;20106;-45
2023/01/08 02:32:40;;;;;;;7.13;1.92;;;;;;;13.77;52.22;98156.97;5132418;27;20027;-45
2023/01/08 02:35:07;;;;;;;9.13;2.53;;;;;;;13.81;52.28;98148.63;5133717;27;20015;-45
2023/01/08 02:37:34;;;;;;;6.97;2.28;;;;;;;13.87;52.14;98150.31;5133673;27;20058;-45
2023/01/08 02:40:18;;;;;;;11.75;2.80;;;;;;;13.92;51.58;98148.59;5132315;27;20102;-45
2023/01/08 02:43:14;;;;;;;13.95;1.80;;;;;;;13.89;51.81;98140.34;5133611;27;20031;-45
2023/01/08 02:45:48;;;;;;;7.60;1.88;;;;;;;13.92;51.65;98142.47;5166510;27;20505;-45
2023/01/08 02:48:25;;;;;;;11.07;2.25;;;;;;;13.93;51.12;98142.25;5133496;27;20396;-45
2023/01/08 02:50:55;;;;;;;13.98;2.50;;;;;;;13.91;51.66;98131.13;5133463;27;20037;-45
2023/01/08 02:53:35;;;;;;;11.25;2.22;;;;;;;13.86;51.20;98140.78;5132396;27;20038;-45
2023/01/08 02:56:05;;;;;;;11.38;2.88;;;;;;;13.84;51.52;98130.47;5133404;27;20031;-45
2023/01/08 02:58:34;;;;;;;7.50;1.80;;;;;;;13.88;51.43;98128.97;5133363;27;20023;-45
2023/01/08 03:01:06;;;;;;;15.77;2.22;;;;;;;13.98;51.34;98112.53;5133279;27;20023;-45
2023/01/08 03:03:34;;;;;;;13.10;2.33;;;;;;;14.02;51.16;98121.56;5132575;27;20062;-45
2023/01/08 03:06:14;;;;;;;4.60;1.88;;;;;;;14.06;51.35;98137.72;5132107;27;20061;-45
2023/01/08 03:08:42;;;;;;;14.57;2.70;;;;;;;14.02;51.24;98113.66;5132188;27;20480;-45
2023/01/08 03:11:11;;;;;;;10.50;2.63;;;;;;;13.92;51.16;98114.28;5131802;27;20060;-45
2023/01/08 03:13:52;;;;;;;6.95;1.90;;;;;;;13.92;51.53;98137.22;5133096;27;20102;-45
2023/01/08 03:16:42;;;;;;;7.88;1.95;;;;;;;13.95;51.68;98120.91;5133058;27;20031;-45
2023/01/08 03:19:38;;;;;;;5.55;2.08;;;;;;;13.99;51.44;98101.75;5125306;27;20058;-45
2023/01/08 03:22:09;;;;;;;14.02;2.50;;;;;;;13.88;52.13;98101.78;5100516;27;20083;-45
2023/01/08 03:24:38;;;;;;;9.98;2.03;;;;;;;13.87;51.66;98119.47;5132855;27;20049;-45
2023/01/08 03:27:08;;;;;;;7.00;2.88;;;;;;;13.81;52.66;98115.13;5131725;27;20428;-45
2023/01/08 03:29:35;;;;;;;6.13;1.63;;;;;;;13.82;52.21;98106.16;5131520;27;20126;-45
2023/01/08 03:32:08;;;;;;;14.98;2.53;;;;;;;13.84;52.72;98092.75;5131799;27;20042;-45
2023/01/08 03:34:36;;;;;;;23.80;3.88;;;;;;;13.95;52.40;98076.88;5131710;27;20110;-45
2023/01/08 03:37:06;;;;;;;10.15;2.22;;;;;;;14.03;51.91;98075.69;5132776;27;20015;-45
2023/01/08 03:39:45;;;;;;;10.45;1.88;;;;;;;14.04;51.85;98092.31;5131755;28;20058;-45
2023/01/08 03:42:13;;;;;;;19.88;2.85;;;;;;;13.94;52.17;98106.94;5132632;27;20051;-45
2023/01/08 03:44:39;;;;;;;14.15;2.90;;;;;;;13.90;52.85;98094.44;5131428;28;20392;-45
2023/01/08 03:47:09;;;;;;;15.75;2.58;;;;;;;13.87;52.66;98098.34;5131340;28;20027;-45
2023/01/08 03:49:36;;;;;;;7.38;2.22;;;;;;;13.89;52.58;98119.22;5131305;28;20034;-45
2023/01/08 03:52:02;;;;;;;10.43;2.67;;;;;;;13.84;52.49;98138.38;5132636;27;20023;-45
2023/01/08 03:54:33;;;;;;;8.95;2.13;;;;;;;13.82;52.01;98137.00;5132608;27;20496;-45
2023/01/08 03:56:59;;;;;;;16.40;3.20;;;;;;;13.80;53.06;98139.88;5131595;28;20062;-45
2023/01/08 03:59:25;;;;;;;5.95;2.33;;;;;;;13.91;52.81;98143.53;5131501;28;20493;-45
2023/01/08 04:01:50;;;;;;;16.02;3.13;;;;;;;13.90;52.75;98139.28;5132448;27;20023;-45
2023/01/08 04:04:16;;;;;;;20.25;3.13;;;;;;;13.93;52.93;98128.28;5132509;27;20103;-45
2023/01/08 04:06:42;;;;;;;18.45;4.38;;;;;;;14.01;52.93;98125.25;5132727;27;20019;-45
2023/01/08 04:09:08;;;;;;;7.57;2.28;;;;;;;14.10;52.32;98129.09;5131113;28;20055;-45
2023/01/08 04:11:34;;;;;;;19.33;3.63;;;;;;;14.14;52.67;98124.16;5132698;27;20035;-45
2023/01/08 04:13:59;;;;;;;14.55;2.47;;;;;;;14.22;51.95;98109.78;5131338;28;20027;-45
2023/01/08 04:16:25;;;;;;;11.40;2.60;;;;;;;14.14;52.24;98116.25;5168785;27;20019;-45
2023/01/08 04:18:50;;;;;;;9.35;2.53;;;;;;;14.09;52.00;98129.34;5135081;27;20181;-45
2023/01/08 04:21:16;;;;;;;9.02;2.25;;;;;;;13.99;52.39;98132.59;5134770;27;20046;-45
2023/01/08 04:23:42;;;;;;;20.30;4.97;;;;;;;14.00;52.86;98126.28;5134931;27;20083;-45
2023/01/08 04:26:08;;;;;;;11.18;2.40;;;;;;;14.07;52.66;98119.03;5136232;27;20027;-45
2023/01/08 04:28:34;;;;;;;7.15;2.85;;;;;;;14.08;52.48;98115.34;5136165;27;20023;-45
2023/01/08 04:31:05;;;;;;;7.28;2.10;;;;;;;14.10;52.37;98118.53;5136458;27;20026;-45
2023/01/08 04:33:30;;;;;;;17.05;4.60;;;;;;;14.06;52.70;98113.97;5135170;27;20027;-45
2023/01/08 04:35:56;;;;;;;8.10;2.60;;;;;;;14.09;52.92;98121.44;5136058;27;20481;-45
2023/01/08 04:38:22;;;;;;;5.28;1.88;;;;;;;14.16;52.25;98116.78;5135088;27;20469;-45
2023/01/08 04:40:47;;;;;;;7.57;2.47;;;;;;;13.96;52.98;98104.88;5135913;27;20034;-45
2023/01/08 04:43:13;;;;;;;12.57;2.83;;;;;;;13.95;53.50;98105.88;5134507;27;20027;-45
2023/01/08 04:45:39;;;;;;;19.55;3.75;;;;;;;13.94;53.68;98098.19;5169308;27;20054;-45
2023/01/08 04:48:05;;;;;;;10.30;2.25;;;;;;;13.85;53.80;98095.16;5135857;27;20027;-45
2023/01/08 04:50:30;;;;;;;15.38;2.90;;;;;;;13.78;54.22;98102.41;5135816;27;20029;-45
2023/01/08 04:52:58;;;;;;;16.90;2.80;;;;;;;13.77;54.48;98093.69;5134709;27;20031;-45
2023/01/08 04:55:23;;;;;;;18.88;4.13;;;;;;;13.78;54.57;98091.84;5134651;27;20080;-45
2023/01/08 04:57:49;;;;;;;5.05;2.35;;;;;;;13.79;54.73;98093.47;5135745;27;20023;-45
2023/01/08 05:00:15;;;;;;;8.38;2.50;;;;;;;13.64;55.44;98104.50;5134528;27;20039;-45
2023/01/08 05:02:41;;;;;;;5.03;2.20;;;;;;;13.70;55.28;98095.69;5134473;27;20028;-45
2023/01/08 05:05:07;;;;;;;9.82;2.35;;;;;;;13.70;55.56;98108.88;5134461;27;20027;-45
2023/01/08 05:07:33;;;;;;;23.33;3.55;;;;;;;13.70;56.10;98105.41;5135736;27;20136;-45
2023/01/08 05:09:58;;;;;;;9.68;2.38;;;;;;;13.73;55.95;98113.66;5134398;27;20519;-45
2023/01/08 05:12:24;;;;;;;6.78;2.60;;;;;;;13.69;56.25;98094.06;5135359;27;20020;-45
2023/01/08 05:14:50;;;;;;;19.60;4.03;;;;;;;13.74;57.33;98114.44;5134325;27;20031;-45
2023/01/08 05:17:15;;;;;;;8.30;2.97;;;;;;;13.79;58.67;98119.84;5135249;27;20488;-45
2023/01/08 05:19:41;;;;;;;12.20;3.05;;;;;;;13.72;60.00;98111.25;5134212;27;20031;-45
2023/01/08 05:22:06;;;;;;;10.07;2.80;;;;;;;13.49;61.02;98104.22;5133516;27;20054;-45
2023/01/08 05:24:32;;;;;;;18.27;4.28;;;;;;;13.23;62.38;98116.84;5133829;27;20023;-45
2023/01/08 05:26:58;;;;;;;48.90;7.03;;;;;;;13.05;63.24;98115.13;5133027;27;20031;-45
2023/01/08 05:29:23;;;;;;;26.08;4.75;;;;;;;12.94;64.02;98105.41;5133706;27;20031;-45
2023/01/08 05:31:49;;;;;;;15.43;3.45;;;;;;;12.93;65.13;98106.44;5135034;27;20047;-45
2023/01/08 05:34:15;;;;;;;13.43;2.85;;;;;;;12.89;64.86;98115.84;5133610;27;20043;-45
2023/01/08 05:36:40;;;;;;;15.18;3.33;;;;;;;12.82;64.35;98108.06;5133597;27;20038;-45
2023/01/08 05:39:06;;;;;;;37.38;5.28;;;;;;;12.79;66.54;98125.09;5134862;27;20019;-46
2023/01/08 05:41:31;;;;;;;16.90;4.20;;;;;;;12.98;67.29;98127.63;5168258;27;20015;-45
2023/01/08 05:43:57;;;;;;;31.45;5.30;;;;;;;13.10;67.10;98130.25;5133367;27;20050;-45
2023/01/08 05:46:23;;;;;;;7.40;2.38;;;;;;;13.26;65.89;98128.75;5133325;27;20030;-45
2023/01/08 05:48:48;;;;;;;12.63;2.70;;;;;;;13.26;65.73;98126.94;5133646;27;20019;-45
2023/01/08 05:51:14;;;;;;;8.80;3.30;;;;;;;13.29;65.43;98121.22;5167980;27;20031;-46
2023/01/08 05:53:40;;;;;;;7.10;3.05;;;;;;;13.29;64.33;98102.75;5133227;27;20023;-45
2023/01/08 05:56:07;;;;;;;27.70;4.55;;;;;;;13.26;64.99;98105.84;5167961;27;20080;-45
2023/01/08 05:58:33;;;;;;;13.23;3.80;;;;;;;13.28;65.27;98108.22;5133199;27;20027;-45
2023/01/08 06:01:08;;;;;;;11.32;3.03;;;;;;;13.39;64.62;98116.16;5134443;27;20035;-45
2023/01/08 06:03:34;;;;;;;8.47;2.77;;;;;;;13.45;63.98;98124.16;5133078;27;20562;-45
2023/01/08 06:06:05;;;;;;;17.38;4.00;;;;;;;13.36;64.28;98134.25;5133000;27;20291;-45
2023/01/08 06:08:31;;;;;;;35.25;5.25;;;;;;;13.26;65.50;98137.47;5133309;27;20508;-45
2023/01/08 06:11:01;;;;;;;15.85;4.03;;;;;;;13.24;65.18;98139.53;5134266;27;20031;-45
2023/01/08 06:13:28;;;;;;;28.77;4.90;;;;;;;13.14;67.44;98126.16;5134290;27;20027;-45
2023/01/08 06:15:54;;;;;;;37.92;6.20;;;;;;;13.08;67.75;98129.66;5134129;27;20023;-45
2023/01/08 06:18:19;;;;;;;66.03;9.07;;;;;;;12.91;69.55;98138.25;5132774;27;20019;-45
2023/01/08 06:20:46;;;;;;;14.90;3.67;;;;;;;12.76;70.82;98157.16;5133850;27;20122;-45
2023/01/08 06:23:11;;;;;;;10.60;2.90;;;;;;;12.62;72.52;98152.34;5132610;27;20100;-45
2023/01/08 06:25:37;;;;;;;21.20;3.72;;;;;;;12.56;74.01;98152.19;5133945;27;20055;-45
2023/01/08 06:28:04;;;;;;;11.35;3.03;;;;;;;12.43;74.05;98157.66;5132550;27;20027;-47
2023/01/08 06:30:30;;;;;;;15.20;3.92;;;;;;;12.23;75.46;98146.63;5132587;27;20073;-47
2023/01/08 06:32:57;;;;;;;23.98;5.22;;;;;;;12.22;77.69;98152.91;5132466;27;20393;-47
2023/01/08 06:35:23;;;;;;;60.15;8.35;;;;;;;12.25;79.24;98149.81;5133770;27;20211;-47
2023/01/08 06:37:48;;;;;;;23.80;4.50;;;;;;;12.26;79.32;98143.56;5132255;27;20034;-48
2023/01/08 06:40:14;;;;;;;14.48;2.97;;;;;;;12.19;79.76;98146.25;5132870;27;20043;-48
2023/01/08 06:42:40;;;;;;;15.18;4.18;;;;;;;12.21;81.31;98153.94;5132593;27;20023;-48
2023/01/08 06:45:06;;;;;;;30.25;5.07;;;;;;;12.29;81.31;98161.50;5132233;27;20031;-48
2023/01/08 06:47:32;;;;;;;27.80;7.63;;;;;;;12.33;82.07;98157.41;5132238;27;20026;-48
2023/01/08 06:49:58;;;;;;;24.52;6.20;;;;;;;12.33;81.73;98160.03;5133536;27;20019;-47
2023/01/08 06:52:24;;;;;;;24.58;4.90;;;;;;;12.27;80.03;98153.03;5132116;27;20130;-48
2023/01/08 06:54:50;;;;;;;11.73;4.35;;;;;;;12.22;81.06;98135.31;5132084;27;20023;-48
2023/01/08 06:57:15;;;;;;;25.35;4.68;;;;;;;12.32;81.65;98114.50;5133320;27;20067;-48
2023/01/08 06:59:41;;;;;;;12.02;3.58;;;;;;;12.41;79.14;98116.81;5166736;27;20400;-48
2023/01/08 07:02:13;;;;;;;13.50;3.53;;;;;;;12.43;78.63;98110.28;5133107;27;20540;-48
2023/01/08 07:04:38;;;;;;;20.77;6.30;;;;;;;12.44;79.35;98124.28;5133235;27;20027;-48
2023/01/08 07:07:04;;;;;;;21.67;5.65;;;;;;;12.50;79.47;98134.69;5133226;27;20065;-48
2023/01/08 07:09:29;;;;;;;22.65;5.43;;;;;;;12.49;78.71;98125.16;5131863;27;20050;-48
2023/01/08 07:11:55;;;;;;;15.43;4.10;;;;;;;12.53;78.32;98128.94;5133125;27;20456;-48
2023/01/08 07:14:21;;;;;;;12.10;2.95;;;;;;;12.52;77.79;98126.56;5131811;27;20434;-48
2023/01/08 07:16:46;;;;;;;12.88;4.70;;;;;;;12.53;76.93;98131.59;5133001;27;20019;-48
2023/01/08 07:19:12;;;;;;;18.38;4.25;;;;;;;12.47;75.96;98137.75;5131648;27;20062;-48
2023/01/08 07:21:38;;;;;;;24.15;4.45;;;;;;;12.41;77.74;98128.13;5166083;27;20531;-48
2023/01/08 07:24:04;;;;;;;51.67;44.58;;;;;;;12.44;78.51;98132.16;5131532;27;20475;-48
2023/01/08 07:26:30;;;;;;;14.18;6.40;;;;;;;12.48;79.09;98126.22;5132879;27;20019;-48
2023/01/08 07:28:56;;;;;;;18.45;5.50;;;;;;;12.54;79.28;98132.41;5131546;27;20099;-48
2023/01/08 07:31:21;;;;;;;10.10;3.85;;;;;;;12.66;79.17;98124.53;5131535;27;20035;-48
2023/01/08 07:33:47;;;;;;;12.00;4.18;;;;;;;12.74;77.62;98121.56;5132745;27;20015;-48
2023/01/08 07:36:14;;;;;;;14.32;3.47;;;;;;;12.77;75.56;98110.56;5131421;27;20054;-48
2023/01/08 07:38:40;;;;;;;14.15;3.95;;;;;;;12.69;73.46;98109.06;5132795;27;20019;-48
2023/01/08 07:41:06;;;;;;;7.70;3.22;;;;;;;12.64;74.60;98105.53;5131367;28;20463;-48
2023/01/08 07:43:34;;;;;;;19.33;4.35;;;;;;;12.72;75.15;98111.25;5131374;28;20051;-48
2023/01/08 07:46:02;;;;;;;21.73;15.95;;;;;;;12.85;73.62;98109.41;5132677;27;20019;-48
2023/01/08 07:48:28;;;;;;;15.25;4.65;;;;;;;12.84;74.22;98100.72;5131359;28;20105;-48
2023/01/08 07:50:59;;;;;;;20.23;5.47;;;;;;;12.94;74.92;98123.84;5134848;27;20081;-48
2023/01/08 07:53:24;;;;;;;17.27;4.93;;;;;;;13.06;73.97;98116.75;5135922;27;20034;-47
2023/01/08 07:55:50;;;;;;;13.32;4.00;;;;;;;13.10;72.69;98109.16;5135483;27;20024;-48
2023/01/08 07:58:16;;;;;;;16.00;3.08;;;;;;;13.09;72.14;98118.91;5170317;27;20031;-45
2023/01/08 08:00:41;;;;;;;11.02;3.72;;;;;;;13.10;72.49;98099.44;5136786;27;20481;-45
2023/01/08 08:03:12;;;;;;;14.75;3.45;;;;;;;13.05;71.87;98111.72;5136692;27;20491;-45
2023/01/08 08:05:37;;;;;;;12.77;3.65;;;;;;;13.05;71.61;98115.13;5136731;27;20397;-46
2023/01/08 08:08:10;;;;;;;13.20;3.65;;;;;;;13.10;71.56;98056.47;5136652;27;20023;-45
2023/01/08 08:10:37;;;;;;;10.98;3.35;;;;;;;13.13;70.72;98106.09;5136647;27;20103;-45
2023/01/08 08:13:03;;;;;;;8.60;2.85;;;;;;;13.08;71.51;98125.22;5136604;27;20392;-45
2023/01/08 08:15:29;;;;;;;8.32;3.15;;;;;;;12.96;71.55;98103.34;5135160;27;20026;-45
2023/01/08 08:17:55;;;;;;;12.40;3.30;;;;;;;13.02;73.85;98110.34;5135116;27;20396;-45
2023/01/08 08:20:20;;;;;;;5.65;3.17;;;;;;;13.03;73.21;98104.03;5134795;27;20047;-46
2023/01/08 08:22:46;;;;;;;18.05;4.50;;;;;;;12.76;75.18;98104.50;5135263;27;20024;-46
2023/01/08 08:25:14;;;;;;;12.73;3.58;;;;;;;12.63;75.80;98098.66;5135262;27;20370;-45
2023/01/08 08:27:41;;;;;;;14.30;3.85;;;;;;;12.49;76.45;98098.84;5135001;27;20023;-46
2023/01/08 08:30:07;;;;;;;12.57;3.72;;;;;;;12.46;76.56;98088.78;5134932;27;20023;-46
2023/01/08 08:32:33;;;;;;;10.95;3.75;;;;;;;12.48;76.92;98096.47;5134912;27;20442;-45
2023/01/08 08:34:59;;;;;;;11.05;3.15;;;;;;;12.56;77.46;98091.66;5134881;27;20023;-46
2023/01/08 08:37:25;;;;;;;17.67;3.78;;;;;;;12.68;76.83;98096.94;5136114;27;20019;-46
2023/01/08 08:39:51;;;;;;;14.55;3.58;;;;;;;12.81;75.20;98090.63;5134725;27;20075;-46
2023/01/08 08:42:17;;;;;;;7.40;3.28;;;;;;;12.97;75.61;98097.84;5135934;27;20507;-45
2023/01/08 08:44:43;;;;;;;14.43;3.53;;;;;;;13.16;74.78;98097.72;5134696;27;20016;-46
2023/01/08 08:47:08;;;;;;;14.82;4.53;;;;;;;13.24;75.26;98083.38;5135874;27;20031;-46
2023/01/08 08:49:35;;;;;;;9.57;3.03;;;;;;;13.40;73.26;98077.44;5134867;27;20019;-45
2023/01/08 08:52:01;;;;;;;9.52;4.50;;;;;;;13.39;73.76;98081.09;5135801;27;20023;-45
2023/01/08 08:54:27;;;;;;;6.13;2.80;;;;;;;13.41;71.73;98080.88;5134470;27;20016;-45
2023/01/08 08:56:53;;;;;;;14.98;3.53;;;;;;;13.28;72.35;98090.59;5135751;27;20030;-45
2023/01/08 08:59:18;;;;;;;20.92;3.63;;;;;;;13.31;72.91;98094.63;5135748;27;20027;-45
2023/01/08 09:01:44;;;;;;;11.32;3.20;;;;;;;13.36;73.06;98094.72;5134689;27;20068;-45
2023/01/08 09:04:09;;;;;;;11.05;3.35;;;;;;;13.42;72.46;98101.72;5134210;27;20023;-45
2023/01/08 09:06:35;;;;;;;9.25;3.42;;;;;;;13.47;71.62;98093.91;5117056;27;20031;-45
2023/01/08 09:09:01;;;;;;;14.32;2.63;;;;;;;13.46;71.45;98092.31;5135439;27;20019;-45
2023/01/08 09:11:26;;;;;;;11.88;3.75;;;;;;;13.54;71.64;98088.50;5169054;27;20038;-45
2023/01/08 09:13:52;;;;;;;9.48;2.33;;;;;;;13.65;69.83;98085.03;5134013;27;20107;-45
2023/01/08 09:16:18;;;;;;;14.90;3.42;;;;;;;13.67;70.35;98075.03;5116867;27;20049;-45
2023/01/08 09:18:44;;;;;;;10.45;3.70;;;;;;;13.68;69.85;98074.03;5134192;27;20063;-45
2023/01/08 09:21:10;;;;;;;16.13;4.18;;;;;;;13.64;69.72;98072.88;5134957;27;20039;-45
2023/01/08 09:23:37;;;;;;;8.73;3.13;;;;;;;13.66;69.97;98065.53;5133812;27;20045;-45
2023/01/08 09:26:05;;;;;;;8.18;3.03;;;;;;;13.61;69.63;98052.25;5133808;27;20032;-45
2023/01/08 09:28:31;;;;;;;8.02;2.95;;;;;;;13.67;69.57;98045.25;5135109;27;20046;-45
2023/01/08 09:31:02;;;;;;;8.75;3.17;;;;;;;13.72;68.94;98043.50;5116545;27;20489;-45
2023/01/08 09:33:29;;;;;;;11.02;3.47;;;;;;;13.68;68.95;98031.84;5135106;27;20020;-45
2023/01/08 09:35:55;;;;;;;12.93;3.60;;;;;;;13.68;69.14;98031.00;5135092;27;20058;-45
2023/01/08 09:38:21;;;;;;;8.52;3.10;;;;;;;13.74;69.94;98025.59;5135006;27;20051;-45
2023/01/08 09:40:58;;;;;;;17.70;4.15;;;;;;;13.82;68.91;98005.16;5133832;27;20023;-45
2023/01/08 09:43:28;;;;;;;11.35;3.78;;;;;;;13.89;68.31;97987.34;5134814;27;20076;-45
2023/01/08 09:46:01;;;;;;;9.52;3.60;;;;;;;13.92;68.28;97968.38;5134710;27;20027;-45
2023/01/08 09:48:34;;;;;;;11.63;3.63;;;;;;;14.03;68.52;97961.44;5133432;27;20088;-45
2023/01/08 09:51:00;;;;;;;7.20;2.55;;;;;;;14.24;67.25;97962.53;5133594;27;20027;-45
2023/01/08 09:53:26;;;;;;;6.65;2.63;;;;;;;14.27;66.93;97947.03;5134937;27;20516;-46
2023/01/08 09:55:59;;;;;;;9.02;2.83;;;;;;;14.27;66.53;97939.13;5134508;27;20031;-45
2023/01/08 09:58:39;;;;;;;12.85;3.90;;;;;;;14.31;66.42;97913.84;5134557;27;20097;-45
2023/01/08 10:01:06;;;;;;;7.57;3.00;;;;;;;14.52;65.26;97922.81;5134356;27;20043;-45
2023/01/08 10:03:47;;;;;;;9.85;2.92;;;;;;;14.76;64.97;97926.03;5134290;27;20106;-45
2023/01/08 10:06:15;;;;;;;11.43;2.65;;;;;;;14.94;63.92;97934.72;5134381;27;20031;-45
2023/01/08 10:08:41;;;;;;;14.02;3.65;;;;;;;15.03;64.05;97948.28;5134340;27;20027;-45
2023/01/08 10:11:08;;;;;;;13.20;3.15;;;;;;;15.17;63.46;97952.94;5134282;27;20488;-46
2023/01/08 10:13:37;;;;;;;4.80;2.72;;;;;;;15.22;63.13;97946.13;5133993;27;20027;-45
2023/01/08 10:16:10;;;;;;;10.88;3.13;;;;;;;15.27;63.43;97952.25;5134171;27;20057;-45
2023/01/08 10:18:37;;;;;;;7.47;3.10;;;;;;;15.33;63.14;97967.13;5134151;27;20044;-45
2023/01/08 10:21:03;;;;;;;8.07;3.60;;;;;;;15.31;62.97;97981.63;5132431;27;20145;-45
2023/01/08 10:23:29;;;;;;;8.20;2.95;;;;;;;15.29;63.20;97981.06;5132940;27;20498;-45
2023/01/08 10:25:57;;;;;;;9.23;3.00;;;;;;;15.28;62.88;97975.00;5132680;27;20062;-45
2023/01/08 10:28:28;;;;;;;8.00;3.35;;;;;;;15.31;62.65;97963.09;5134005;27;20030;-45
2023/01/08 10:31:02;;;;;;;5.80;2.78;;;;;;;15.32;62.38;97970.81;5133906;27;20079;-45
2023/01/08 10:33:37;;;;;;;8.20;3.03;;;;;;;15.38;62.55;97975.09;5133928;27;20019;-45
2023/01/08 10:36:07;;;;;;;11.23;3.90;;;;;;;15.37;63.03;97968.22;5133888;27;20027;-45
2023/01/08 10:38:36;;;;;;;11.32;3.30;;;;;;;15.42;62.11;97974.59;5132767;27;20243;-45
2023/01/08 10:41:11;;;;;;;8.95;3.22;;;;;;;15.34;61.76;97981.94;5133662;27;20031;-46
2023/01/08 10:44:01;;;;;;;8.60;2.92;;;;;;;15.42;61.89;97974.59;5133654;27;20404;-45
2023/01/08 10:46:35;;;;;;;9.70;2.78;;;;;;;15.53;62.01;97976.28;5132327;27;20031;-45
2023/01/08 10:49:04;;;;;;;10.00;3.73;;;;;;;15.57;61.65;97972.09;5133953;27;20377;-45
2023/01/08 10:51:32;;;;;;;14.05;4.03;;;;;;;15.61;61.28;97967.91;5133513;27;20019;-45
2023/01/08 10:54:00;;;;;;;9.48;3.40;;;;;;;15.56;61.39;97954.66;5133493;27;20035;-45
2023/01/08 10:56:39;;;;;;;7.60;3.10;;;;;;;15.65;61.80;97952.34;5133417;27;20024;-46
2023/01/08 10:59:05;;;;;;;8.55;3.67;;;;;;;15.66;61.38;97957.38;5133730;27;20046;-45
2023/01/08 11:01:31;;;;;;;8.98;3.20;;;;;;;15.58;61.68;97949.91;5133336;27;20477;-45
2023/01/08 11:04:05;;;;;;;6.88;2.95;;;;;;;15.56;61.24;97952.78;5133249;27;20019;-45
2023/01/08 11:06:34;;;;;;;16.05;3.80;;;;;;;15.40;61.52;97931.75;5133360;27;20034;-45
2023/01/08 11:09:22;;;;;;;4.82;2.83;;;;;;;15.29;61.81;97928.19;5133327;27;20362;-45
2023/01/08 11:11:49;;;;;;;13.93;3.97;;;;;;;15.19;61.99;97923.59;5131875;27;20029;-45
2023/01/08 11:14:21;;;;;;;11.77;3.03;;;;;;;15.12;62.29;97920.38;5133145;27;20103;-45
2023/01/08 11:16:48;;;;;;;14.00;3.03;;;;;;;15.03;62.85;97913.91;5133403;27;20038;-45
2023/01/08 11:19:21;;;;;;;8.05;3.65;;;;;;;14.94;63.21;97917.00;5131709;27;20076;-45
2023/01/08 11:22:03;;;;;;;7.72;3.42;;;;;;;14.81;63.56;97906.00;5132827;27;20091;-45
2023/01/08 11:24:32;;;;;;;12.27;3.50;;;;;;;14.70;64.22;97921.75;5131294;27;20051;-45
2023/01/08 11:27:06;;;;;;;10.10;2.95;;;;;;;14.68;64.16;97920.41;5131540;27;20027;-45
2023/01/08 11:29:47;;;;;;;13.35;3.90;;;;;;;14.71;65.65;97901.44;5131556;27;20051;-45
2023/01/08 11:32:50;;;;;;;8.63;2.95;;;;;;;14.92;64.36;97902.44;5132882;27;20027;-45
2023/01/08 11:35:19;;;;;;;10.57;3.13;;;;;;;15.00;63.57;97899.38;5131734;27;20026;-45